Etusivu
METAR-TAF:

METAR-TAF

Lentoasemat :

Elk Valley

Sparwood, Brittiläinen Kolumbia, Kanada

Leveyspiiri: 49-45N, Pituuspiiri: 114-53W, korkeus merenpinnasta: 1138 m

Tämänhetkinen sää

Tämä raportti tehtiin 52 minuuttia sitten, kello 19.00 UTC
Tuuli 3 kn eri suunnista
Lämpötila 7°C
Kosteus 45%
Ilmanpaine 1028 hPa
Näkyvyys: 32.2 km
Muutamia pilviä 22000 ft:n korkeudessa

METAR: CWSW 191900Z VRB03KT 20SM FEW220 07/M04 A3036 RMK CI1 SLP318

Aika: 13:52 (19:52 UTC)


TAF: puuttuu

Säähavainnot ja -ennusteet yli 4000 lentoasemalta (METAR- ja TAF-raportit).

Käytössä olevat sääasemat on merkitty karttaan keltaisilla ja punaisilla pisteillä.

Aseta hiiri pisteen päälle nähdäksesi sääaseman nimen.

Klikkaa sitten nähdäksesi säähavainnot ja -ennusteet.

Kartan vaihtaminen: klikkaa mustalla rastilla varustettuja vihreitä pisteitä, niin voit zoomata sisään; viivalla varustettua vihreää pistettä, niin voit zoomata ulos tai vihreitä nuolia, niin pääset viereisille kartoille.


METAR-TAF: